createdAt,value
2018-04-14T00:02:01.846Z,25.50
2018-04-14T00:04:29.974Z,24.03
2018-04-14T00:06:57.521Z,24.87
2018-04-14T00:09:25.102Z,24.57
2018-04-14T00:11:52.697Z,22.00
2018-04-14T00:14:20.241Z,22.63
2018-04-14T00:16:47.792Z,22.30
2018-04-14T00:19:15.377Z,21.07
2018-04-14T00:21:43.346Z,21.47
2018-04-14T00:24:10.929Z,21.57
2018-04-14T00:26:39.603Z,23.77
2018-04-14T00:29:07.417Z,21.67
2018-04-14T00:31:35.258Z,22.30
2018-04-14T00:34:02.851Z,20.90
2018-04-14T00:36:30.911Z,20.93
2018-04-14T00:38:58.731Z,19.40
2018-04-14T00:41:26.279Z,20.73
2018-04-14T00:43:53.877Z,21.07
2018-04-14T00:46:21.803Z,21.30
2018-04-14T00:48:49.782Z,21.60
2018-04-14T00:51:17.425Z,22.17
2018-04-14T00:53:48.314Z,24.00
2018-04-14T00:56:15.886Z,21.53
2018-04-14T00:58:43.501Z,22.33
2018-04-14T01:01:11.455Z,20.47
2018-04-14T01:03:39.068Z,21.10
2018-04-14T01:06:06.617Z,23.50
2018-04-14T01:08:34.495Z,21.33
2018-04-14T01:11:02.041Z,20.13
2018-04-14T01:13:29.626Z,20.07
2018-04-14T01:15:57.169Z,20.43
2018-04-14T01:18:24.755Z,20.17
2018-04-14T01:20:52.305Z,20.50
2018-04-14T01:23:19.893Z,22.67
2018-04-14T01:25:47.437Z,22.70
2018-04-14T01:28:15.030Z,24.13
2018-04-14T01:30:42.577Z,24.17
2018-04-14T01:33:10.127Z,24.87
2018-04-14T01:35:38.045Z,27.03
2018-04-14T01:38:06.114Z,28.20
2018-04-14T01:40:33.698Z,27.47
2018-04-14T01:43:01.305Z,23.90
2018-04-14T01:45:28.909Z,24.10
2018-04-14T01:47:56.505Z,23.60
2018-04-14T01:50:24.049Z,24.97
2018-04-14T01:52:51.637Z,22.37
2018-04-14T01:55:19.182Z,22.70
2018-04-14T01:57:47.443Z,21.17
2018-04-14T02:00:15.229Z,22.83
2018-04-14T02:02:43.142Z,23.40
2018-04-14T02:05:10.727Z,26.70
2018-04-14T02:07:38.674Z,24.37
2018-04-14T02:10:06.234Z,24.87
2018-04-14T02:12:33.821Z,22.23
2018-04-14T02:15:01.597Z,22.80
2018-04-14T02:17:29.713Z,21.20
2018-04-14T02:19:57.803Z,22.23
2018-04-14T02:22:25.410Z,19.93
2018-04-14T02:24:53.155Z,19.57
2018-04-14T02:27:21.327Z,22.13
2018-04-14T02:29:49.041Z,20.17
2018-04-14T02:32:16.859Z,20.17
2018-04-14T02:34:44.457Z,18.93
2018-04-14T02:37:12.083Z,19.30
2018-04-14T02:39:39.686Z,20.30
2018-04-14T02:42:07.253Z,18.87
2018-04-14T02:44:34.849Z,19.70
2018-04-14T02:47:02.778Z,18.73
2018-04-14T02:49:30.368Z,19.10
2018-04-14T02:51:58.310Z,19.07
2018-04-14T02:54:26.129Z,18.47
2018-04-14T02:56:53.721Z,18.83
2018-04-14T02:59:21.860Z,19.87
2018-04-14T03:01:49.802Z,19.37
2018-04-14T03:04:17.353Z,19.17
2018-04-14T03:06:44.954Z,19.23
2018-04-14T03:09:12.569Z,19.93
2018-04-14T03:11:40.371Z,19.17
2018-04-14T03:14:07.919Z,18.87
2018-04-14T03:16:35.502Z,20.57
2018-04-14T03:19:03.073Z,20.80
2018-04-14T03:21:30.925Z,20.30
2018-04-14T03:23:58.465Z,20.23
2018-04-14T03:26:26.367Z,20.07
2018-04-14T03:28:53.909Z,20.37
2018-04-14T03:31:21.471Z,19.10
2018-04-14T03:33:49.504Z,20.13
2018-04-14T03:36:17.423Z,20.87
2018-04-14T03:38:44.982Z,25.00
2018-04-14T03:41:12.701Z,26.70
2018-04-14T03:43:40.409Z,26.17
2018-04-14T03:46:07.958Z,22.90
2018-04-14T03:48:35.502Z,23.93
2018-04-14T03:51:03.049Z,27.30
2018-04-14T03:53:30.806Z,38.77
2018-04-14T03:55:58.407Z,38.83
2018-04-14T03:58:26.006Z,40.80
2018-04-14T04:00:53.820Z,45.63
2018-04-14T04:03:21.412Z,52.73
2018-04-14T04:05:48.953Z,42.47
2018-04-14T04:08:16.501Z,45.07
2018-04-14T04:10:45.057Z,40.97
2018-04-14T04:13:13.011Z,39.50
2018-04-14T04:15:40.586Z,41.20
2018-04-14T04:18:09.361Z,38.10
2018-04-14T04:20:51.553Z,38.20
2018-04-14T04:26:24.867Z,33.67
2018-04-14T04:28:53.006Z,34.87
2018-04-14T04:31:20.739Z,35.53
2018-04-14T04:33:49.068Z,38.17
2018-04-14T04:36:16.663Z,40.03
2018-04-14T04:38:45.651Z,41.87
2018-04-14T04:41:13.254Z,45.47
2018-04-14T04:43:40.814Z,46.43
2018-04-14T04:46:08.407Z,48.67
2018-04-14T04:48:36.374Z,46.33
2018-04-14T04:51:04.224Z,43.37
2018-04-14T04:53:32.788Z,42.10
2018-04-14T04:56:00.410Z,39.27
2018-04-14T04:58:28.352Z,34.87
2018-04-14T05:00:56.393Z,31.87
2018-04-14T05:03:24.662Z,29.13
2018-04-14T05:05:52.218Z,28.10
2018-04-14T05:08:19.783Z,26.13
2018-04-14T05:10:47.399Z,24.47
2018-04-14T05:13:15.345Z,22.63
2018-04-14T05:15:42.947Z,24.17
2018-04-14T05:18:11.047Z,25.23
2018-04-14T05:20:39.627Z,22.77
2018-04-14T05:23:07.178Z,20.30
2018-04-14T05:25:34.778Z,20.87
2018-04-14T05:28:02.480Z,20.07
2018-04-14T05:30:30.331Z,19.33
2018-04-14T05:32:57.891Z,19.60
2018-04-14T05:35:25.838Z,19.37
2018-04-14T05:37:54.297Z,18.53
2018-04-14T05:40:21.916Z,16.07
2018-04-14T05:42:49.538Z,15.70
2018-04-14T05:45:17.835Z,15.90
2018-04-14T05:47:45.941Z,16.30
2018-04-14T05:50:13.881Z,15.93
2018-04-14T05:52:41.526Z,16.50
2018-04-14T05:55:09.489Z,16.10
2018-04-14T05:57:37.066Z,15.23
2018-04-14T06:00:05.073Z,15.00
2018-04-14T06:02:32.635Z,14.73
2018-04-14T06:05:00.227Z,15.13
2018-04-14T06:07:29.080Z,13.33
2018-04-14T06:09:56.646Z,14.57
2018-04-14T06:12:24.542Z,13.63
2018-04-14T06:14:52.438Z,12.90
2018-04-14T06:17:21.091Z,13.17
2018-04-14T06:19:48.964Z,13.00
2018-04-14T06:22:17.044Z,13.57
2018-04-14T06:24:44.986Z,12.73
2018-04-14T06:27:12.576Z,13.63
2018-04-14T06:29:40.520Z,12.93
2018-04-14T06:32:08.653Z,12.40
2018-04-14T06:34:36.217Z,11.97
2018-04-14T06:37:05.008Z,11.67
2018-04-14T06:39:34.315Z,11.50
2018-04-14T06:42:01.902Z,12.63
2018-04-14T06:44:30.206Z,12.07
2018-04-14T06:46:57.801Z,12.67
2018-04-14T06:49:25.370Z,13.00
2018-04-14T06:51:52.967Z,14.33
2018-04-14T06:54:21.047Z,14.70
2018-04-14T06:56:48.648Z,12.57
2018-04-14T06:59:16.630Z,17.33
2018-04-14T07:01:45.210Z,15.43
2018-04-14T07:04:12.766Z,14.10
2018-04-14T07:06:40.379Z,17.27
2018-04-14T07:09:07.947Z,18.30
2018-04-14T07:11:35.547Z,13.93
2018-04-14T07:14:03.116Z,12.87
2018-04-14T07:16:30.671Z,13.13
2018-04-14T07:18:59.110Z,13.83
2018-04-14T07:21:26.725Z,13.87
2018-04-14T07:23:54.279Z,13.27
2018-04-14T07:26:21.882Z,14.37
2018-04-14T07:28:49.477Z,14.00
2018-04-14T07:31:17.087Z,14.47
2018-04-14T07:33:45.116Z,16.77
2018-04-14T07:36:13.527Z,14.33
2018-04-14T07:38:41.126Z,15.33
2018-04-14T07:41:08.742Z,14.37
2018-04-14T07:43:36.338Z,16.13
2018-04-14T07:46:04.263Z,13.67
2018-04-14T07:48:31.997Z,14.90
2018-04-14T07:50:59.734Z,13.80
2018-04-14T07:53:27.334Z,14.10
2018-04-14T07:55:54.954Z,12.83
2018-04-14T07:58:22.536Z,13.47
2018-04-14T08:00:50.131Z,12.97
2018-04-14T08:03:17.717Z,12.93
2018-04-14T08:05:45.910Z,12.07
2018-04-14T08:08:14.001Z,11.73
2018-04-14T08:10:42.428Z,12.40
2018-04-14T08:13:10.383Z,12.17
2018-04-14T08:15:38.499Z,12.80
2018-04-14T08:18:06.084Z,11.33
2018-04-14T08:20:34.057Z,11.90
2018-04-14T08:23:01.611Z,11.90
2018-04-14T08:25:29.248Z,13.10
2018-04-14T08:27:56.802Z,11.57
2018-04-14T08:30:25.231Z,11.80
2018-04-14T08:32:53.298Z,12.57
2018-04-14T08:35:20.939Z,11.97
2018-04-14T08:37:48.551Z,12.10
2018-04-14T08:40:17.684Z,12.80
2018-04-14T08:42:45.624Z,11.27
2018-04-14T08:45:13.198Z,11.30
2018-04-14T08:47:40.795Z,12.57
2018-04-14T08:50:08.411Z,13.37
2018-04-14T08:52:36.012Z,11.87
2018-04-14T08:55:03.978Z,11.40
2018-04-14T08:57:31.528Z,10.90
2018-04-14T08:59:59.385Z,11.07
2018-04-14T09:02:28.152Z,11.40
2018-04-14T09:04:55.710Z,11.50
2018-04-14T09:07:23.583Z,11.77
2018-04-14T09:09:51.138Z,11.33
2018-04-14T09:12:18.747Z,10.83
2018-04-14T09:14:46.942Z,11.03
2018-04-14T09:17:15.675Z,10.90
2018-04-14T09:19:43.493Z,10.37
2018-04-14T09:22:11.121Z,10.07
2018-04-14T09:24:39.726Z,10.00
2018-04-14T09:27:07.304Z,9.73
2018-04-14T09:29:35.127Z,10.90
2018-04-14T09:32:02.959Z,10.40
2018-04-14T09:34:30.527Z,10.47
2018-04-14T09:36:58.186Z,10.60
2018-04-14T09:39:26.214Z,10.27
2018-04-14T09:41:53.815Z,10.77
2018-04-14T09:44:21.410Z,10.47
2018-04-14T09:46:49.807Z,9.85
2018-04-14T09:49:18.166Z,9.67
2018-04-14T09:51:46.662Z,10.43
2018-04-14T09:54:14.279Z,11.53
2018-04-14T09:56:42.232Z,10.77
2018-04-14T09:59:09.783Z,10.40
2018-04-14T10:01:38.005Z,11.17
2018-04-14T10:04:06.155Z,10.30
2018-04-14T10:06:33.707Z,10.90
2018-04-14T10:09:01.266Z,9.73
2018-04-14T10:11:29.253Z,10.67
2018-04-14T10:13:57.135Z,10.77
2018-04-14T10:16:24.690Z,11.40
2018-04-14T10:18:53.126Z,10.53
2018-04-14T10:21:20.726Z,10.47
2018-04-14T10:23:48.283Z,11.57
2018-04-14T10:26:16.827Z,10.20
2018-04-14T10:28:44.379Z,10.43
2018-04-14T10:31:11.939Z,10.70
2018-04-14T10:33:39.539Z,9.80
2018-04-14T10:36:07.274Z,11.00
2018-04-14T10:38:34.833Z,10.60
2018-04-14T10:41:02.489Z,10.90
2018-04-14T10:43:30.841Z,10.40
2018-04-14T10:45:58.399Z,10.00
2018-04-14T10:48:26.539Z,10.93
2018-04-14T10:50:54.131Z,9.70
2018-04-14T10:53:21.737Z,11.13
2018-04-14T10:55:49.343Z,11.07
2018-04-14T10:58:16.882Z,11.13
2018-04-14T11:00:45.125Z,11.20
2018-04-14T11:03:13.634Z,10.60
2018-04-14T11:05:41.982Z,10.63
2018-04-14T11:08:09.579Z,11.10
2018-04-14T11:10:38.162Z,10.17
2018-04-14T11:13:05.762Z,10.97
2018-04-14T11:15:34.606Z,10.00
2018-04-14T11:18:02.218Z,10.40
2018-04-14T11:20:30.806Z,9.90
2018-04-14T11:22:59.001Z,10.10
2018-04-14T11:25:26.850Z,9.67
2018-04-14T11:27:56.387Z,11.07
2018-04-14T11:30:24.938Z,10.90
2018-04-14T11:32:52.502Z,10.90
2018-04-14T11:35:20.098Z,10.73
2018-04-14T11:37:48.044Z,10.87
2018-04-14T11:40:15.660Z,10.97
2018-04-14T11:42:43.872Z,10.33
2018-04-14T11:45:12.235Z,10.53
2018-04-14T11:47:39.835Z,10.73
2018-04-14T11:50:08.411Z,10.87
2018-04-14T11:52:36.024Z,11.10
2018-04-14T11:55:03.643Z,9.97
2018-04-14T11:57:31.808Z,11.30
2018-04-14T11:59:59.359Z,11.43
2018-04-14T12:02:27.035Z,10.37
2018-04-14T12:04:54.941Z,10.07
2018-04-14T12:07:22.572Z,11.33
2018-04-14T12:09:51.931Z,11.40
2018-04-14T12:12:19.508Z,11.30
2018-04-14T12:14:47.692Z,10.37
2018-04-14T12:17:15.247Z,11.60
2018-04-14T12:19:42.854Z,10.53
2018-04-14T12:22:12.400Z,10.60
2018-04-14T12:24:39.993Z,9.97
2018-04-14T12:27:07.546Z,9.60
2018-04-14T12:29:35.157Z,9.40
2018-04-14T12:32:02.790Z,9.73
2018-04-14T12:34:30.888Z,9.87
2018-04-14T12:37:00.374Z,9.07
2018-04-14T12:39:28.465Z,10.27
2018-04-14T12:41:56.653Z,9.03
2018-04-14T12:44:24.222Z,9.20
2018-04-14T12:46:52.647Z,8.73
2018-04-14T12:49:20.688Z,8.90
2018-04-14T12:51:48.299Z,9.87
2018-04-14T12:54:15.853Z,8.83
2018-04-14T12:56:43.464Z,8.63
2018-04-14T12:59:11.015Z,7.70
2018-04-14T13:01:38.885Z,8.20
2018-04-14T13:04:06.490Z,7.93
2018-04-14T13:06:34.053Z,7.40
2018-04-14T13:09:01.991Z,7.97
2018-04-14T13:11:29.554Z,7.37
2018-04-14T13:13:57.178Z,8.00
2018-04-14T13:16:25.282Z,8.13
2018-04-14T13:18:53.397Z,7.43
2018-04-14T13:21:20.987Z,6.90
2018-04-14T13:23:49.398Z,7.23
2018-04-14T13:26:17.666Z,7.17
2018-04-14T13:28:45.706Z,7.00
2018-04-14T13:31:13.703Z,6.90
2018-04-14T13:33:41.818Z,6.10
2018-04-14T13:36:09.983Z,7.77
2018-04-14T13:38:37.575Z,6.90
2018-04-14T13:41:06.092Z,6.83
2018-04-14T13:43:33.647Z,6.63
2018-04-14T13:46:01.507Z,7.30
2018-04-14T13:48:29.122Z,6.30
2018-04-14T13:50:57.236Z,7.07
2018-04-14T13:53:24.787Z,6.80
2018-04-14T13:55:52.390Z,7.73
2018-04-14T13:58:20.722Z,6.73
2018-04-14T14:00:49.311Z,6.83
2018-04-14T14:03:17.412Z,6.70
2018-04-14T14:05:45.042Z,7.07
2018-04-14T14:08:12.993Z,7.00
2018-04-14T14:10:40.546Z,7.70
2018-04-14T14:13:08.147Z,6.60
2018-04-14T14:15:35.697Z,6.50
2018-04-14T14:18:03.708Z,6.67
2018-04-14T14:20:31.773Z,7.60
2018-04-14T14:22:59.383Z,7.00
2018-04-14T14:25:26.940Z,6.97
2018-04-14T14:27:55.172Z,7.30
2018-04-14T14:30:22.768Z,7.73
2018-04-14T14:32:50.884Z,7.67
2018-04-14T14:35:19.315Z,7.43
2018-04-14T14:37:48.147Z,7.23
2018-04-14T14:40:15.998Z,8.40
2018-04-14T14:42:45.018Z,7.30
2018-04-14T14:45:12.543Z,7.00
2018-04-14T14:47:40.478Z,7.50
2018-04-14T14:50:13.700Z,7.53
2018-04-14T14:52:41.312Z,6.93
2018-04-14T14:55:08.870Z,6.73
2018-04-14T14:57:36.468Z,7.30
2018-04-14T15:00:05.847Z,7.87
2018-04-14T15:02:33.403Z,7.33
2018-04-14T15:05:01.062Z,7.50
2018-04-14T15:07:29.131Z,8.47
2018-04-14T15:09:56.727Z,7.67
2018-04-14T15:12:24.561Z,7.10
2018-04-14T15:14:53.795Z,7.57
2018-04-14T15:17:21.359Z,6.83
2018-04-14T15:19:48.906Z,7.30
2018-04-14T15:22:17.394Z,6.67
2018-04-14T15:24:44.991Z,7.27
2018-04-14T15:27:12.639Z,7.23
2018-04-14T15:29:42.834Z,6.60
2018-04-14T15:32:10.389Z,7.77
2018-04-14T15:34:38.018Z,7.07
2018-04-14T15:37:06.515Z,8.07
2018-04-14T15:39:34.058Z,6.70
2018-04-14T15:42:02.151Z,6.53
2018-04-14T15:44:29.712Z,7.33
2018-04-14T15:46:57.270Z,6.93
2018-04-14T15:49:26.016Z,6.33
2018-04-14T15:51:53.570Z,7.40
2018-04-14T15:54:22.621Z,6.73
2018-04-14T15:56:51.919Z,6.93
2018-04-14T15:59:24.443Z,6.77
2018-04-14T16:01:52.295Z,7.50
2018-04-14T16:04:19.996Z,7.87
2018-04-14T16:06:48.088Z,6.80
2018-04-14T16:09:16.030Z,6.83
2018-04-14T16:11:43.635Z,7.30
2018-04-14T16:14:11.239Z,6.93
2018-04-14T16:16:40.404Z,7.23
2018-04-14T16:19:07.986Z,7.50
2018-04-14T16:21:35.543Z,7.27
2018-04-14T16:24:03.138Z,7.73
2018-04-14T16:26:30.699Z,6.73
2018-04-14T16:28:58.299Z,8.47
2018-04-14T16:31:25.851Z,8.00
2018-04-14T16:33:53.450Z,6.80
2018-04-14T16:36:21.505Z,7.73
2018-04-14T16:38:49.059Z,7.13
2018-04-14T16:41:18.120Z,8.40
2018-04-14T16:43:45.729Z,6.60
2018-04-14T16:46:13.347Z,7.10
2018-04-14T16:48:40.914Z,7.40
2018-04-14T16:51:08.469Z,7.67
2018-04-14T16:53:36.087Z,7.50
2018-04-14T16:56:03.645Z,6.70
2018-04-14T16:58:31.799Z,7.33
2018-04-14T17:00:59.620Z,7.70
2018-04-14T17:03:27.388Z,6.73
2018-04-14T17:05:54.999Z,7.73
2018-04-14T17:08:22.652Z,7.73
2018-04-14T17:10:50.209Z,6.77
2018-04-14T17:13:18.896Z,7.00
2018-04-14T17:15:47.346Z,7.83
2018-04-14T17:18:15.777Z,7.90
2018-04-14T17:20:43.719Z,7.43
2018-04-14T17:23:11.991Z,8.23
2018-04-14T17:25:40.878Z,7.30
2018-04-14T17:28:08.742Z,7.57
2018-04-14T17:30:37.723Z,8.00
2018-04-14T17:33:06.749Z,7.03
2018-04-14T17:35:34.299Z,7.93
2018-04-14T17:38:02.407Z,8.40
2018-04-14T17:40:30.015Z,7.50
2018-04-14T17:42:59.591Z,8.00
2018-04-14T17:45:27.143Z,7.60
2018-04-14T17:47:54.726Z,7.33
2018-04-14T17:50:22.510Z,8.20
2018-04-14T17:52:50.828Z,7.60
2018-04-14T17:55:18.778Z,7.53
2018-04-14T17:57:47.759Z,7.97
2018-04-14T18:00:15.379Z,8.10
2018-04-14T18:02:42.971Z,7.57
2018-04-14T18:05:10.843Z,7.63
2018-04-14T18:07:39.338Z,8.03
2018-04-14T18:10:06.887Z,7.30
2018-04-14T18:12:35.955Z,7.23
2018-04-14T18:15:03.575Z,7.87
2018-04-14T18:17:33.128Z,8.10
2018-04-14T18:20:01.453Z,8.20
2018-04-14T18:22:29.085Z,8.90
2018-04-14T18:24:56.700Z,8.37
2018-04-14T18:27:25.977Z,7.67
2018-04-14T18:29:54.109Z,8.00
2018-04-14T18:32:22.550Z,7.63
2018-04-14T18:34:52.141Z,8.00
2018-04-14T18:37:20.411Z,7.50
2018-04-14T18:39:48.031Z,8.77
2018-04-14T18:42:16.574Z,7.50
2018-04-14T18:44:44.507Z,7.30
2018-04-14T18:47:13.304Z,8.03
2018-04-14T18:49:41.726Z,7.73
2018-04-14T18:52:10.239Z,7.57
2018-04-14T18:54:37.806Z,7.30
2018-04-14T18:57:05.768Z,8.13
2018-04-14T18:59:33.431Z,7.03
2018-04-14T19:02:01.900Z,7.07
2018-04-14T19:04:29.708Z,8.60
2018-04-14T19:06:57.730Z,7.43
2018-04-14T19:09:26.607Z,8.13
2018-04-14T19:11:54.187Z,8.03
2018-04-14T19:14:22.623Z,8.40
2018-04-14T19:16:50.274Z,7.97
2018-04-14T19:19:17.882Z,7.87
2018-04-14T19:21:46.076Z,7.43
2018-04-14T19:24:13.695Z,7.73
2018-04-14T19:26:41.948Z,7.83
2018-04-14T19:29:11.105Z,7.57
2018-04-14T19:31:38.928Z,8.83
2018-04-14T19:34:06.834Z,8.40
2018-04-14T19:36:34.899Z,8.07
2018-04-14T19:39:02.743Z,7.30
2018-04-14T19:41:30.912Z,7.57
2018-04-14T19:43:59.058Z,7.40
2018-04-14T19:46:27.137Z,8.47
2018-04-14T19:48:54.746Z,7.50
2018-04-14T19:51:23.115Z,8.60
2018-04-14T19:53:51.040Z,7.87
2018-04-14T19:56:19.154Z,7.50
2018-04-14T19:58:46.727Z,7.27
2018-04-14T20:01:15.019Z,7.43
2018-04-14T20:03:44.301Z,8.10
2018-04-14T20:06:11.851Z,7.40
2018-04-14T20:08:39.819Z,7.50
2018-04-14T20:11:08.148Z,7.30
2018-04-14T20:13:36.940Z,7.40
2018-04-14T20:16:05.211Z,6.83
2018-04-14T20:18:34.204Z,7.07
2018-04-14T20:21:01.783Z,6.80
2018-04-14T20:23:30.047Z,7.40
2018-04-14T20:25:57.959Z,6.93
2018-04-14T20:28:28.260Z,7.63
2018-04-14T20:30:56.339Z,7.60
2018-04-14T20:33:23.899Z,7.20
2018-04-14T20:35:52.132Z,7.33
2018-04-14T20:38:19.686Z,7.67
2018-04-14T20:40:47.439Z,7.17
2018-04-14T20:43:15.039Z,7.70
2018-04-14T20:45:42.679Z,7.90
2018-04-14T20:48:10.287Z,7.37
2018-04-14T20:50:37.859Z,7.43
2018-04-14T20:53:05.475Z,7.30
2018-04-14T20:55:33.055Z,7.07
2018-04-14T20:58:01.379Z,7.40
2018-04-14T21:00:29.399Z,7.90
2018-04-14T21:02:57.295Z,7.00
2018-04-14T21:05:25.150Z,7.30
2018-04-14T21:07:52.705Z,7.13
2018-04-14T21:10:20.616Z,6.63
2018-04-14T21:12:48.524Z,7.47
2018-04-14T21:15:16.142Z,7.70
2018-04-14T21:17:43.898Z,7.63
2018-04-14T21:20:11.515Z,7.83
2018-04-14T21:22:39.629Z,7.40
2018-04-14T21:25:08.432Z,7.63
2018-04-14T21:27:35.995Z,7.00
2018-04-14T21:30:04.334Z,7.07
2018-04-14T21:32:32.024Z,7.57
2018-04-14T21:34:59.739Z,6.67
2018-04-14T21:37:27.834Z,7.90
2018-04-14T21:39:55.900Z,7.37
2018-04-14T21:42:23.706Z,7.23
2018-04-14T21:44:51.307Z,7.77
2018-04-14T21:47:18.897Z,6.87
2018-04-14T21:49:46.468Z,6.93
2018-04-14T21:52:14.062Z,7.70
2018-04-14T21:54:43.135Z,7.63
2018-04-14T21:57:11.387Z,7.60
2018-04-14T21:59:38.991Z,7.40
2018-04-14T22:02:07.350Z,7.23
2018-04-14T22:04:34.978Z,7.47
2018-04-14T22:07:02.910Z,7.43
2018-04-14T22:09:30.944Z,7.17
2018-04-14T22:11:59.491Z,7.33
2018-04-14T22:14:34.867Z,6.97
2018-04-14T22:17:02.526Z,7.57
2018-04-14T22:19:30.107Z,7.33
2018-04-14T22:21:57.803Z,7.77
2018-04-14T22:24:26.012Z,7.10
2018-04-14T22:26:53.576Z,7.00
2018-04-14T22:29:21.547Z,7.47
2018-04-14T22:31:49.106Z,7.13
2018-04-14T22:34:16.724Z,7.27
2018-04-14T22:36:44.339Z,6.87
2018-04-14T22:39:12.407Z,7.83
2018-04-14T22:41:40.191Z,6.40
2018-04-14T22:44:08.549Z,6.73
2018-04-14T22:46:36.380Z,7.30
2018-04-14T22:49:03.931Z,7.03
2018-04-14T22:51:31.887Z,7.47
2018-04-14T22:53:59.443Z,6.83
2018-04-14T22:56:27.054Z,7.70
2018-04-14T22:58:54.624Z,7.30
2018-04-14T23:01:22.751Z,7.03
2018-04-14T23:03:50.307Z,7.30
2018-04-14T23:06:17.915Z,7.20
2018-04-14T23:08:45.503Z,7.80
2018-04-14T23:11:13.098Z,7.77
2018-04-14T23:13:41.592Z,7.57
2018-04-14T23:16:09.407Z,6.70
2018-04-14T23:18:37.339Z,6.97
2018-04-14T23:21:04.897Z,7.17
2018-04-14T23:23:32.776Z,6.63
2018-04-14T23:26:00.536Z,6.80
2018-04-14T23:28:28.476Z,7.27
2018-04-14T23:30:56.673Z,6.87
2018-04-14T23:33:24.685Z,7.27
2018-04-14T23:35:52.813Z,6.93
2018-04-14T23:38:20.418Z,7.67
2018-04-14T23:40:48.506Z,7.13
2018-04-14T23:43:16.091Z,6.83
2018-04-14T23:45:44.535Z,6.23
2018-04-14T23:48:12.552Z,7.03
2018-04-14T23:50:40.099Z,6.90
2018-04-14T23:53:08.583Z,6.77
2018-04-14T23:55:36.728Z,7.10
2018-04-14T23:58:04.277Z,6.13
